createdAt,value
2018-09-06T00:01:55.736Z,102308.11
2018-09-06T00:04:24.558Z,102305.92
2018-09-06T00:06:53.579Z,102312.38
2018-09-06T00:09:22.341Z,102312.88
2018-09-06T00:11:51.851Z,102306.33
2018-09-06T00:14:20.640Z,102302.83
2018-09-06T00:16:49.378Z,102312.16
2018-09-06T00:19:17.989Z,102317.03
2018-09-06T00:21:46.780Z,102316.34
2018-09-06T00:24:15.751Z,102316.30
2018-09-06T00:26:44.674Z,102315.39
2018-09-06T00:29:13.352Z,102316.97
2018-09-06T00:31:42.064Z,102319.66
2018-09-06T00:34:10.695Z,102318.02
2018-09-06T00:36:39.492Z,102311.48
2018-09-06T00:39:08.952Z,102321.62
2018-09-06T00:41:37.672Z,102268.30
2018-09-06T00:44:06.788Z,102314.13
2018-09-06T00:46:35.470Z,102307.69
2018-09-06T00:49:04.193Z,102307.33
2018-09-06T00:51:32.896Z,102299.51
2018-09-06T00:54:01.920Z,102303.20
2018-09-06T00:56:30.586Z,102305.63
2018-09-06T00:58:59.386Z,102319.43
2018-09-06T01:01:28.154Z,102305.34
2018-09-06T01:03:57.098Z,102299.91
2018-09-06T01:06:25.723Z,102298.48
2018-09-06T01:08:54.399Z,102296.30
2018-09-06T01:11:23.073Z,102292.77
2018-09-06T01:13:51.928Z,102292.41
2018-09-06T01:16:20.677Z,102295.40
2018-09-06T01:18:49.403Z,102295.79
2018-09-06T01:21:18.146Z,102297.43
2018-09-06T01:23:46.824Z,102293.78
2018-09-06T01:26:15.548Z,102290.34
2018-09-06T01:28:44.209Z,102288.16
2018-09-06T01:31:12.839Z,102279.58
2018-09-06T01:33:41.552Z,102279.04
2018-09-06T01:36:15.658Z,102277.52
2018-09-06T01:38:44.312Z,102284.45
2018-09-06T01:41:13.010Z,102283.08
2018-09-06T01:43:41.928Z,102284.39
2018-09-06T01:46:10.822Z,102287.50
2018-09-06T01:48:39.849Z,102280.96
2018-09-06T01:51:08.669Z,102281.92
2018-09-06T01:53:37.562Z,102288.41
2018-09-06T01:56:06.478Z,102283.64
2018-09-06T01:58:35.188Z,102282.33
2018-09-06T02:01:03.960Z,102285.55
2018-09-06T02:03:32.793Z,102280.78
2018-09-06T02:06:01.877Z,102281.11
2018-09-06T02:08:30.707Z,102280.24
2018-09-06T02:10:59.648Z,102278.47
2018-09-06T02:13:28.486Z,102280.60
2018-09-06T02:15:57.460Z,102274.30
2018-09-06T02:18:26.500Z,102280.02
2018-09-06T02:20:55.308Z,102277.84
2018-09-06T02:23:24.120Z,102276.47
2018-09-06T02:25:52.927Z,102275.97
2018-09-06T02:28:21.622Z,102279.06
2018-09-06T02:30:50.568Z,102280.87
2018-09-06T02:33:19.670Z,102277.89
2018-09-06T02:35:48.545Z,102288.32
2018-09-06T02:38:17.522Z,102278.24
2018-09-06T02:40:46.393Z,102279.06
2018-09-06T02:43:15.064Z,102275.11
2018-09-06T02:45:44.806Z,102281.23
2018-09-06T02:48:13.576Z,102280.70
2018-09-06T02:50:47.823Z,102274.98
2018-09-06T02:53:16.647Z,102278.06
2018-09-06T02:55:46.407Z,102277.79
2018-09-06T02:58:15.114Z,102277.69
2018-09-06T03:00:43.868Z,102282.02
2018-09-06T03:03:12.969Z,102276.75
2018-09-06T03:05:41.800Z,102279.92
2018-09-06T03:08:10.749Z,102281.64
2018-09-06T03:10:43.528Z,102283.05
2018-09-06T03:13:12.249Z,102285.69
2018-09-06T03:15:40.962Z,102284.78
2018-09-06T03:18:09.989Z,102282.96
2018-09-06T03:20:38.855Z,102285.64
2018-09-06T03:23:07.628Z,102283.05
2018-09-06T03:25:36.494Z,102287.46
2018-09-06T03:28:05.709Z,102278.24
2018-09-06T03:30:34.497Z,102281.28
2018-09-06T03:33:03.669Z,102274.80
2018-09-06T03:35:32.777Z,102279.28
2018-09-06T03:38:01.684Z,102281.05
2018-09-06T03:40:30.390Z,102273.30
2018-09-06T03:42:59.135Z,102278.11
2018-09-06T03:45:27.734Z,102284.05
2018-09-06T03:47:56.362Z,102285.27
2018-09-06T03:50:25.076Z,102280.00
2018-09-06T03:52:53.843Z,102275.20
2018-09-06T03:55:22.670Z,102278.06
2018-09-06T03:57:51.478Z,102280.23
2018-09-06T04:00:20.391Z,102282.64
2018-09-06T04:02:49.047Z,102279.06
2018-09-06T04:05:18.078Z,102279.79
2018-09-06T04:07:46.868Z,102271.80
2018-09-06T04:10:15.540Z,102277.42
2018-09-06T04:12:44.287Z,102279.69
2018-09-06T04:15:13.015Z,102284.37
2018-09-06T04:17:41.611Z,102282.78
2018-09-06T04:20:10.560Z,102285.17
2018-09-06T04:22:43.885Z,102286.25
2018-09-06T04:25:12.748Z,102286.56
2018-09-06T04:27:41.531Z,102293.50
2018-09-06T04:30:10.660Z,102293.38
2018-09-06T04:32:39.491Z,102292.81
2018-09-06T04:35:08.261Z,102298.76
2018-09-06T04:37:36.938Z,102294.22
2018-09-06T04:40:05.796Z,102286.26
2018-09-06T04:42:34.799Z,102283.12
2018-09-06T04:45:03.836Z,102291.42
2018-09-06T04:47:32.695Z,102298.74
2018-09-06T04:50:01.672Z,102300.06
2018-09-06T04:52:30.481Z,102302.86
2018-09-06T04:54:59.093Z,102303.57
2018-09-06T04:57:27.734Z,102304.70
2018-09-06T04:59:56.628Z,102292.48
2018-09-06T05:02:25.389Z,102293.42
2018-09-06T05:04:54.018Z,102292.67
2018-09-06T05:07:22.779Z,102289.80
2018-09-06T05:09:51.598Z,102290.55
2018-09-06T05:12:20.226Z,102297.81
2018-09-06T05:14:49.346Z,102295.68
2018-09-06T05:17:18.427Z,102299.34
2018-09-06T05:19:47.184Z,102294.61
2018-09-06T05:22:15.820Z,102292.91
2018-09-06T05:24:44.581Z,102296.14
2018-09-06T05:27:13.302Z,102294.80
2018-09-06T05:29:41.873Z,102293.11
2018-09-06T05:32:10.559Z,102289.28
2018-09-06T05:34:39.439Z,102292.39
2018-09-06T05:37:08.217Z,102296.23
2018-09-06T05:39:37.008Z,102290.53
2018-09-06T05:42:05.768Z,102294.30
2018-09-06T05:44:34.511Z,102288.82
2018-09-06T05:47:03.435Z,102285.56
2018-09-06T05:49:32.154Z,102285.14
2018-09-06T05:52:01.124Z,102288.27
2018-09-06T05:54:29.938Z,102286.42
2018-09-06T05:56:58.748Z,102284.31
2018-09-06T05:59:27.483Z,102293.47
2018-09-06T06:01:56.107Z,102289.75
2018-09-06T06:04:24.797Z,102291.00
2018-09-06T06:06:53.447Z,102293.25
2018-09-06T06:09:22.300Z,102296.47
2018-09-06T06:11:51.292Z,102290.90
2018-09-06T06:14:20.063Z,102290.81
2018-09-06T06:16:48.819Z,102291.52
2018-09-06T06:19:17.650Z,102297.14
2018-09-06T06:21:46.323Z,102296.12
2018-09-06T06:24:15.215Z,102297.19
2018-09-06T06:26:43.957Z,102303.11
2018-09-06T06:29:12.774Z,102299.08
2018-09-06T06:31:41.384Z,102298.06
2018-09-06T06:34:10.274Z,102296.97
2018-09-06T06:36:39.191Z,102293.59
2018-09-06T06:39:10.911Z,102297.91
2018-09-06T06:41:39.787Z,102292.09
2018-09-06T06:44:08.626Z,102287.83
2018-09-06T06:46:37.364Z,102292.47
2018-09-06T06:49:06.575Z,102289.36
2018-09-06T06:51:35.464Z,102284.80
2018-09-06T06:54:04.584Z,102272.80
2018-09-06T06:56:33.433Z,102279.70
2018-09-06T06:59:02.116Z,102278.87
2018-09-06T07:01:30.817Z,102280.98
2018-09-06T07:03:59.544Z,102278.38
2018-09-06T07:06:28.357Z,102274.52
2018-09-06T07:08:57.057Z,102280.73
2018-09-06T07:11:25.920Z,102280.10
2018-09-06T07:13:54.916Z,102277.06
2018-09-06T07:16:23.639Z,102277.63
2018-09-06T07:18:53.062Z,102282.12
2018-09-06T07:21:21.952Z,102277.98
2018-09-06T07:23:50.911Z,102283.20
2018-09-06T07:26:19.617Z,102280.86
2018-09-06T07:28:48.506Z,102273.03
2018-09-06T07:31:17.325Z,102275.11
2018-09-06T07:33:46.070Z,102273.71
2018-09-06T07:36:15.079Z,102272.48
2018-09-06T07:38:44.153Z,102275.32
2018-09-06T07:41:13.255Z,102268.53
2018-09-06T07:43:42.220Z,102266.52
2018-09-06T07:46:11.080Z,102264.17
2018-09-06T07:48:39.910Z,102267.37
2018-09-06T07:51:08.618Z,102264.98
2018-09-06T07:53:37.280Z,102266.23
2018-09-06T07:56:06.052Z,102263.87
2018-09-06T07:58:34.787Z,102264.73
2018-09-06T08:01:03.517Z,102259.37
2018-09-06T08:03:32.437Z,102255.41
2018-09-06T08:06:01.310Z,102261.39
2018-09-06T08:08:30.229Z,102261.85
2018-09-06T08:10:59.020Z,102259.53
2018-09-06T08:13:27.808Z,102262.97
2018-09-06T08:15:56.450Z,102260.07
2018-09-06T08:18:25.242Z,102259.21
2018-09-06T08:20:54.230Z,102260.39
2018-09-06T08:23:23.143Z,102259.45
2018-09-06T08:25:52.112Z,102260.17
2018-09-06T08:28:20.849Z,102259.59
2018-09-06T08:30:49.866Z,102264.44
2018-09-06T08:33:18.745Z,102261.36
2018-09-06T08:35:47.768Z,102263.94
2018-09-06T08:38:16.726Z,102260.79
2018-09-06T08:40:45.860Z,102280.77
2018-09-06T08:43:14.668Z,102267.41
2018-09-06T08:45:43.669Z,102260.39
2018-09-06T08:48:12.476Z,102254.83
2018-09-06T08:50:41.221Z,102254.75
2018-09-06T08:53:09.905Z,102256.13
2018-09-06T08:55:38.569Z,102261.63
2018-09-06T08:58:07.184Z,102260.05
2018-09-06T09:00:38.224Z,102261.63
2018-09-06T09:03:07.182Z,102260.14
2018-09-06T09:05:36.103Z,102257.53
2018-09-06T09:08:05.383Z,102257.70
2018-09-06T09:10:34.083Z,102257.58
2018-09-06T09:13:02.987Z,102259.27
2018-09-06T09:15:31.623Z,102255.08
2018-09-06T09:18:00.351Z,102257.84
2018-09-06T09:20:29.067Z,102257.70
2018-09-06T09:22:57.832Z,102254.86
2018-09-06T09:25:26.709Z,102256.80
2018-09-06T09:27:55.616Z,102251.06
2018-09-06T09:30:24.436Z,102250.95
2018-09-06T09:32:53.542Z,102249.19
2018-09-06T09:35:22.458Z,102246.63
2018-09-06T09:37:51.168Z,102246.24
2018-09-06T09:40:20.181Z,102239.05
2018-09-06T09:42:49.750Z,102236.73
2018-09-06T09:45:18.454Z,102237.06
2018-09-06T09:47:47.328Z,102233.49
2018-09-06T09:52:44.395Z,102233.49
2018-09-06T09:55:13.037Z,102227.76
2018-09-06T09:57:41.917Z,102227.66
2018-09-06T10:00:10.581Z,102226.41
2018-09-06T10:02:44.708Z,102230.41
2018-09-06T10:05:18.799Z,102224.02
2018-09-06T10:07:52.801Z,102227.13
2018-09-06T10:10:21.960Z,102221.19
2018-09-06T10:12:50.625Z,102219.31
2018-09-06T10:15:19.604Z,102222.23
2018-09-06T10:17:48.533Z,102220.73
2018-09-06T10:20:17.720Z,102220.73
2018-09-06T10:22:46.765Z,102218.65
2018-09-06T10:25:15.485Z,102221.29
2018-09-06T10:27:44.784Z,102216.83
2018-09-06T10:30:13.695Z,102216.56
2018-09-06T10:32:42.617Z,102214.00
2018-09-06T10:35:11.761Z,102213.11
2018-09-06T10:37:40.836Z,102205.51
2018-09-06T10:40:09.193Z,102201.90
2018-09-06T10:42:38.208Z,102202.64
2018-09-06T10:45:07.325Z,102193.20
2018-09-06T10:47:35.959Z,102196.72
2018-09-06T10:50:05.928Z,102196.95
2018-09-06T10:52:34.694Z,102195.00
2018-09-06T10:55:03.624Z,102196.98
2018-09-06T10:57:32.549Z,102193.59
2018-09-06T11:00:01.366Z,102194.24
2018-09-06T11:02:30.188Z,102190.20
2018-09-06T11:04:59.088Z,102182.61
2018-09-06T11:07:28.011Z,102181.63
2018-09-06T11:09:56.995Z,102176.25
2018-09-06T11:12:25.892Z,102174.77
2018-09-06T11:14:54.921Z,102179.64
2018-09-06T11:17:23.712Z,102169.64
2018-09-06T11:19:52.387Z,102177.82
2018-09-06T11:22:21.385Z,102165.32
2018-09-06T11:24:50.331Z,102162.67
2018-09-06T11:27:18.996Z,102164.30
2018-09-06T11:29:47.910Z,102165.29
2018-09-06T11:32:17.118Z,102159.84
2018-09-06T11:34:45.865Z,102164.94
2018-09-06T11:37:14.961Z,102165.53
2018-09-06T11:39:43.607Z,102161.28
2018-09-06T11:42:13.030Z,102163.75
2018-09-06T11:44:41.296Z,102156.81
2018-09-06T11:47:10.319Z,102153.53
2018-09-06T11:49:39.087Z,102155.18
2018-09-06T11:52:08.392Z,102154.83
2018-09-06T11:54:37.214Z,102154.12
2018-09-06T11:57:06.257Z,102148.55
2018-09-06T11:59:35.293Z,102150.77
2018-09-06T12:02:04.492Z,102150.61
2018-09-06T12:04:33.086Z,102145.11
2018-09-06T12:07:01.783Z,102140.59
2018-09-06T12:09:30.666Z,102140.29
2018-09-06T12:11:59.619Z,102139.09
2018-09-06T12:14:28.322Z,102133.36
2018-09-06T12:16:56.983Z,102128.59
2018-09-06T12:19:25.620Z,102130.48
2018-09-06T12:21:54.547Z,102132.33
2018-09-06T12:24:23.476Z,102134.55
2018-09-06T12:26:52.217Z,102130.54
2018-09-06T12:29:21.199Z,102131.43
2018-09-06T12:31:50.179Z,102129.98
2018-09-06T12:34:19.209Z,102126.52
2018-09-06T12:36:48.749Z,102120.70
2018-09-06T12:39:17.607Z,102130.16
2018-09-06T12:41:46.324Z,102127.46
2018-09-06T12:44:15.448Z,102131.53
2018-09-06T12:46:44.443Z,102121.97
2018-09-06T12:49:13.223Z,102121.75
2018-09-06T12:51:42.244Z,102121.34
2018-09-06T12:54:10.934Z,102117.58
2018-09-06T12:56:39.991Z,102118.01
2018-09-06T12:59:08.849Z,102131.63
2018-09-06T13:01:37.556Z,102117.86
2018-09-06T13:04:06.759Z,102110.22
2018-09-06T13:06:35.485Z,102110.55
2018-09-06T13:09:05.361Z,102113.56
2018-09-06T13:11:33.961Z,102114.27
2018-09-06T13:14:02.677Z,102112.44
2018-09-06T13:16:31.562Z,102101.63
2018-09-06T13:19:00.499Z,102101.17
2018-09-06T13:21:29.204Z,102094.05
2018-09-06T13:23:57.797Z,102073.63
2018-09-06T13:26:26.637Z,102092.05
2018-09-06T13:28:55.381Z,102089.39
2018-09-06T13:31:24.597Z,102080.20
2018-09-06T13:33:53.289Z,102082.48
2018-09-06T13:36:22.246Z,102082.06
2018-09-06T13:38:51.094Z,102086.52
2018-09-06T13:41:19.972Z,102088.04
2018-09-06T13:43:48.807Z,102098.10
2018-09-06T13:46:17.833Z,102095.34
2018-09-06T13:48:46.773Z,102096.76
2018-09-06T13:51:15.616Z,102096.84
2018-09-06T13:53:44.421Z,102094.16
2018-09-06T13:56:13.288Z,102097.20
2018-09-06T13:58:42.128Z,102088.51
2018-09-06T14:01:11.106Z,102081.34
2018-09-06T14:03:39.910Z,102082.11
2018-09-06T14:06:08.938Z,102074.70
2018-09-06T14:08:37.932Z,102076.69
2018-09-06T14:11:06.739Z,102069.41
2018-09-06T14:13:35.475Z,102070.59
2018-09-06T14:16:04.310Z,102069.05
2018-09-06T14:18:33.061Z,102069.53
2018-09-06T14:21:01.903Z,102075.22
2018-09-06T14:23:30.726Z,102081.72
2018-09-06T14:25:59.495Z,102076.23
2018-09-06T14:28:28.070Z,102076.99
2018-09-06T14:30:56.890Z,102077.84
2018-09-06T14:33:25.948Z,102075.55
2018-09-06T14:35:54.866Z,102078.06
2018-09-06T14:38:23.703Z,102078.17
2018-09-06T14:40:52.537Z,102075.55
2018-09-06T14:43:21.340Z,102078.16
2018-09-06T14:45:50.035Z,102072.41
2018-09-06T14:48:18.809Z,102075.45
2018-09-06T14:50:47.820Z,102086.83
2018-09-06T14:53:16.516Z,102083.92
2018-09-06T14:55:45.157Z,102085.36
2018-09-06T14:58:13.939Z,102086.48
2018-09-06T15:00:43.101Z,102083.70
2018-09-06T15:03:11.723Z,102088.28
2018-09-06T15:05:40.395Z,102085.55
2018-09-06T15:08:09.371Z,102084.30
2018-09-06T15:10:38.632Z,102084.08
2018-09-06T15:13:07.623Z,102083.58
2018-09-06T15:15:36.261Z,102089.89
2018-09-06T15:18:04.938Z,102082.39
2018-09-06T15:20:33.832Z,102087.08
2018-09-06T15:23:02.760Z,102087.61
2018-09-06T15:25:31.444Z,102085.55
2018-09-06T15:28:00.442Z,102086.02
2018-09-06T15:30:29.369Z,102085.05
2018-09-06T15:32:58.162Z,102085.05
2018-09-06T15:35:26.976Z,102083.06
2018-09-06T15:37:56.052Z,102086.70
2018-09-06T15:40:25.964Z,102081.05
2018-09-06T15:42:54.679Z,102079.95
2018-09-06T15:45:23.507Z,102085.27
2018-09-06T15:47:52.610Z,102084.30
2018-09-06T15:50:21.569Z,102083.95
2018-09-06T15:52:50.488Z,102086.83
2018-09-06T15:55:19.177Z,102083.22
2018-09-06T15:57:47.960Z,102080.92
2018-09-06T16:00:16.624Z,102076.38
2018-09-06T16:02:45.473Z,102073.33
2018-09-06T16:05:14.516Z,102077.89
2018-09-06T16:07:43.875Z,102084.37
2018-09-06T16:10:12.558Z,102088.05
2018-09-06T16:12:41.241Z,102087.73
2018-09-06T16:15:10.361Z,102090.92
2018-09-06T16:17:39.324Z,102089.36
2018-09-06T16:20:09.198Z,102089.36
2018-09-06T16:22:38.179Z,102096.03
2018-09-06T16:25:06.933Z,102093.70
2018-09-06T16:27:35.810Z,102096.72
2018-09-06T16:30:05.229Z,102094.16
2018-09-06T16:32:34.001Z,102096.83
2018-09-06T16:35:02.761Z,102092.92
2018-09-06T16:37:31.502Z,102094.22
2018-09-06T16:40:00.381Z,102095.66
2018-09-06T16:42:29.114Z,102101.31
2018-09-06T16:44:57.991Z,102105.98
2018-09-06T16:47:26.669Z,102106.08
2018-09-06T16:49:55.627Z,102104.80
2018-09-06T16:52:24.264Z,102100.98
2018-09-06T16:54:53.376Z,102110.66
2018-09-06T16:57:22.250Z,102110.23
2018-09-06T16:59:51.001Z,102111.27
2018-09-06T17:02:19.895Z,102103.45
2018-09-06T17:04:49.280Z,102108.95
2018-09-06T17:07:18.090Z,102106.94
2018-09-06T17:09:46.942Z,102105.95
2018-09-06T17:12:15.858Z,102105.06
2018-09-06T17:14:44.547Z,102103.89
2018-09-06T17:17:13.317Z,102108.33
2018-09-06T17:19:41.990Z,102112.11
2018-09-06T17:22:10.652Z,102116.13
2018-09-06T17:24:39.487Z,102110.95
2018-09-06T17:27:08.268Z,102113.39
2018-09-06T17:29:36.943Z,102114.43
2018-09-06T17:32:05.690Z,102112.39
2018-09-06T17:34:34.568Z,102115.19
2018-09-06T17:37:03.764Z,102120.66
2018-09-06T17:39:32.878Z,102121.27
2018-09-06T17:42:01.783Z,102117.05
2018-09-06T17:44:30.693Z,102114.52
2018-09-06T17:46:59.570Z,102118.63
2018-09-06T17:49:28.631Z,102122.27
2018-09-06T17:51:57.232Z,102116.50
2018-09-06T17:54:26.264Z,102119.19
2018-09-06T17:56:55.008Z,102119.73
2018-09-06T17:59:24.117Z,101449.56
2018-09-06T18:01:53.115Z,102123.30
2018-09-06T18:04:22.091Z,102122.92
2018-09-06T18:06:51.713Z,102129.20
2018-09-06T18:09:20.469Z,102126.08
2018-09-06T18:11:49.156Z,102140.13
2018-09-06T18:14:18.144Z,102139.66
2018-09-06T18:16:46.833Z,102140.43
2018-09-06T18:19:15.477Z,102137.30
2018-09-06T18:21:44.474Z,102141.25
2018-09-06T18:24:13.447Z,102147.23
2018-09-06T18:26:42.246Z,102147.78
2018-09-06T18:29:11.050Z,102148.32
2018-09-06T18:31:39.878Z,102145.95
2018-09-06T18:34:08.788Z,102141.02
2018-09-06T18:36:37.727Z,102144.94
2018-09-06T18:39:07.637Z,102150.70
2018-09-06T18:41:37.182Z,102150.84
2018-09-06T18:44:05.961Z,102143.80
2018-09-06T18:46:34.864Z,102147.03
2018-09-06T18:49:03.918Z,102144.23
2018-09-06T18:51:32.786Z,102146.70
2018-09-06T18:54:01.536Z,102151.42
2018-09-06T18:56:30.380Z,102156.58
2018-09-06T18:58:59.208Z,102159.50
2018-09-06T19:01:28.055Z,102161.66
2018-09-06T19:03:57.449Z,102162.94
2018-09-06T19:06:26.529Z,102165.47
2018-09-06T19:08:55.251Z,102164.95
2018-09-06T19:11:24.329Z,102167.77
2018-09-06T19:13:53.142Z,102163.08
2018-09-06T19:16:21.881Z,102162.88
2018-09-06T19:18:51.177Z,102164.94
2018-09-06T19:21:20.105Z,102166.14
2018-09-06T19:23:49.017Z,102168.34
2018-09-06T19:26:17.958Z,102169.97
2018-09-06T19:28:46.707Z,102167.66
2018-09-06T19:31:15.606Z,102169.17
2018-09-06T19:33:44.386Z,102168.53
2018-09-06T19:36:13.057Z,102171.59
2018-09-06T19:38:41.876Z,102172.63
2018-09-06T19:41:10.751Z,102172.73
2018-09-06T19:43:39.558Z,102172.45
2018-09-06T19:46:08.515Z,102171.74
2018-09-06T19:48:37.889Z,102169.73
2018-09-06T19:51:07.021Z,102170.20
2018-09-06T19:53:35.817Z,102174.79
2018-09-06T19:56:04.723Z,102167.24
2018-09-06T19:58:33.436Z,102163.27
2018-09-06T20:01:02.146Z,102164.92
2018-09-06T20:03:30.805Z,102160.02
2018-09-06T20:05:59.746Z,102161.98
2018-09-06T20:08:28.737Z,102163.44
2018-09-06T20:10:57.775Z,102163.52
2018-09-06T20:13:26.493Z,102158.79
2018-09-06T20:15:55.259Z,102158.08
2018-09-06T20:18:24.931Z,102164.00
2018-09-06T20:20:53.673Z,102164.84
2018-09-06T20:23:22.388Z,102163.73
2018-09-06T20:25:51.333Z,102164.11
2018-09-06T20:28:20.115Z,102173.45
2018-09-06T20:30:49.015Z,102167.51
2018-09-06T20:33:17.868Z,102173.66
2018-09-06T20:35:46.841Z,102177.72
2018-09-06T20:38:15.559Z,102173.42
2018-09-06T20:40:44.293Z,102172.56
2018-09-06T20:43:12.971Z,102170.78
2018-09-06T20:45:41.599Z,102169.66
2018-09-06T20:48:10.432Z,102175.12
2018-09-06T20:50:39.168Z,102172.37
2018-09-06T20:53:08.192Z,102181.63
2018-09-06T20:55:36.928Z,102175.09
2018-09-06T20:58:05.829Z,102181.66
2018-09-06T21:00:34.686Z,102184.38
2018-09-06T21:03:03.308Z,102188.03
2018-09-06T21:05:32.294Z,102181.26
2018-09-06T21:08:01.214Z,102179.14
2018-09-06T21:10:30.082Z,102181.05
2018-09-06T21:12:59.474Z,102180.76
2018-09-06T21:15:28.247Z,102174.28
2018-09-06T21:17:57.087Z,102173.58
2018-09-06T21:20:25.867Z,102175.83
2018-09-06T21:22:54.459Z,102177.27
2018-09-06T21:25:23.237Z,102176.08
2018-09-06T21:27:52.073Z,102182.94
2018-09-06T21:30:21.034Z,102184.36
2018-09-06T21:32:49.859Z,102186.72
2018-09-06T21:35:18.748Z,102185.22
2018-09-06T21:40:22.880Z,102186.89
2018-09-06T21:42:51.861Z,102186.89
2018-09-06T21:45:20.752Z,102191.19
2018-09-06T21:47:49.554Z,102184.98
2018-09-06T21:50:18.182Z,102189.34
2018-09-06T21:52:46.947Z,102186.65
2018-09-06T21:55:15.619Z,102189.53
2018-09-06T21:57:44.414Z,102186.77
2018-09-06T22:00:13.114Z,102189.75
2018-09-06T22:02:47.098Z,102184.47
2018-09-06T22:05:15.811Z,102190.73
2018-09-06T22:07:44.503Z,102187.30
2018-09-06T22:10:13.520Z,102180.45
2018-09-06T22:12:42.243Z,102186.19
2018-09-06T22:15:11.075Z,102188.43
2018-09-06T22:17:39.915Z,102185.55
2018-09-06T22:20:08.702Z,102184.34
2018-09-06T22:22:37.330Z,102186.58
2018-09-06T22:25:06.453Z,102185.87
2018-09-06T22:27:35.318Z,102188.39
2018-09-06T22:30:04.827Z,102176.36
2018-09-06T22:32:33.690Z,102186.40
2018-09-06T22:35:02.411Z,102174.37
2018-09-06T22:37:31.497Z,102181.52
2018-09-06T22:40:00.570Z,102179.00
2018-09-06T22:42:29.267Z,102181.80
2018-09-06T22:44:57.959Z,102173.94
2018-09-06T22:47:26.685Z,102179.79
2018-09-06T22:49:55.402Z,102181.91
2018-09-06T22:52:24.138Z,102178.93
2018-09-06T22:54:53.011Z,102180.80
2018-09-06T22:57:21.603Z,102180.18
2018-09-06T22:59:50.255Z,102178.95
2018-09-06T23:02:18.966Z,102177.75
2018-09-06T23:04:47.681Z,102179.53
2018-09-06T23:07:16.486Z,102185.81
2018-09-06T23:09:45.416Z,102179.80
2018-09-06T23:12:14.083Z,102184.33
2018-09-06T23:14:42.763Z,102183.50
2018-09-06T23:17:11.413Z,102186.52
2018-09-06T23:19:40.027Z,102191.77
2018-09-06T23:22:08.803Z,102181.62
2018-09-06T23:24:37.694Z,102185.06
2018-09-06T23:27:06.472Z,102191.05
2018-09-06T23:29:35.162Z,102194.23
2018-09-06T23:32:04.768Z,102191.59
2018-09-06T23:34:36.877Z,102193.83
2018-09-06T23:37:06.619Z,102187.23
2018-09-06T23:39:35.776Z,102187.41
2018-09-06T23:42:04.457Z,102182.80
2018-09-06T23:44:33.313Z,102186.41
2018-09-06T23:47:02.579Z,102184.62
2018-09-06T23:49:31.299Z,102178.58
2018-09-06T23:52:00.102Z,102176.86
2018-09-06T23:54:29.109Z,102181.39
2018-09-06T23:56:57.702Z,102181.19
2018-09-06T23:59:26.399Z,102184.68
